Time;durP1;ratioP1;P1;durP2;ratioP2;P2;SDS_P1;SDS_P2;PMS_P1;PMS_P2;Temp;Humidity;BMP_temperature;BMP_pressure;BME280_temperature;BME280_humidity;BME280_pressure;Samples;Min_cycle;Max_cycle;Signal;HPM_P1;HPM_P2
2020/12/10 00:00:49;;;;;;;76.03;44.80;;;5.40;99.90;;;5.25;90.71;100598.06;5070865;28;20047;-75
2020/12/10 00:03:17;;;;;;;75.60;45.37;;;5.30;99.90;;;5.20;90.74;100607.63;5071845;28;20117;-74
2020/12/10 00:05:45;;;;;;;75.97;45.80;;;5.30;99.90;;;5.09;91.28;100583.03;5071828;28;20079;-74
2020/12/10 00:08:12;;;;;;;79.43;46.00;;;5.20;99.90;;;5.07;92.02;100588.22;5071982;28;20064;-74
2020/12/10 00:10:40;;;;;;;85.93;47.33;;;5.10;99.90;;;4.75;92.10;100525.78;5071815;28;20489;-74
2020/12/10 00:13:07;;;;;;;81.93;47.20;;;5.20;99.90;;;5.21;92.13;100593.63;5072311;28;20123;-74
2020/12/10 00:15:35;;;;;;;82.47;46.70;;;5.20;99.90;;;2.88;91.64;100168.34;5071622;28;20497;-74
2020/12/10 00:18:02;;;;;;;82.30;47.43;;;5.40;99.90;;;5.26;91.72;100605.09;5070639;28;20444;-74
2020/12/10 00:20:32;;;;;;;82.57;46.30;;;5.30;99.90;;;5.17;91.81;100583.97;5071783;28;20059;-75
2020/12/10 00:23:02;;;;;;;84.63;46.00;;;5.30;99.90;;;5.04;91.99;100601.31;5071690;28;20106;-75
2020/12/10 00:25:29;;;;;;;80.37;46.03;;;5.10;99.90;;;5.08;92.28;100610.06;5070903;28;20041;-75
2020/12/10 00:27:57;;;;;;;84.83;46.63;;;5.10;99.90;;;4.96;92.41;100565.34;5070641;28;20402;-75
2020/12/10 00:30:24;;;;;;;88.47;48.23;;;5.10;99.90;;;4.56;92.50;100529.91;5071552;28;20124;-74
2020/12/10 00:32:54;;;;;;;89.57;51.40;;;5.10;99.90;;;4.96;92.91;100589.81;5071922;28;20460;-74
2020/12/10 00:35:24;;;;;;;83.50;49.67;;;5.00;99.90;;;4.51;92.63;100493.16;5071834;28;20037;-74
2020/12/10 00:37:52;;;;;;;85.20;49.42;;;5.10;99.90;;;4.95;92.32;100561.88;5071787;28;20102;-74
2020/12/10 00:40:20;;;;;;;84.23;47.47;;;5.10;99.90;;;5.12;92.15;100589.19;5070436;28;20037;-74
2020/12/10 00:42:48;;;;;;;92.77;52.67;;;5.20;99.90;;;4.84;92.46;100587.03;5071578;28;20052;-74
2020/12/10 00:45:16;;;;;;;98.30;52.03;;;5.00;99.90;;;4.77;93.19;100586.94;5071451;28;20040;-74
2020/12/10 00:47:43;;;;;;;87.97;50.47;;;4.90;99.90;;;4.77;93.52;100589.56;5070440;28;20044;-74
2020/12/10 00:50:11;;;;;;;89.47;50.43;;;4.80;99.90;;;4.84;93.52;100586.19;5070220;28;20440;-74
2020/12/10 00:52:40;;;;;;;89.40;51.57;;;4.80;99.90;;;4.78;93.60;100586.94;5072551;28;20056;-75
2020/12/10 00:55:13;;;;;;;89.17;50.90;;;4.80;99.90;;;4.75;93.64;100586.03;5074031;28;20135;-75
2020/12/10 00:57:44;;;;;;;82.07;47.28;;;4.80;99.90;;;4.65;93.41;100558.81;5074254;28;20050;-75
2020/12/10 01:00:12;;;;;;;83.87;48.53;;;4.80;99.90;;;2.91;93.41;100243.19;5075447;28;20037;-74
2020/12/10 01:02:39;;;;;;;84.67;44.63;;;4.80;99.90;;;4.68;93.44;100579.84;5075298;28;20076;-74
2020/12/10 01:05:07;;;;;;;84.00;44.30;;;4.80;99.90;;;4.71;93.82;100590.34;5074897;28;20518;-74
2020/12/10 01:07:34;;;;;;;73.87;41.20;;;4.70;99.90;;;4.77;93.20;100592.16;5074824;28;20044;-74
2020/12/10 01:10:04;;;;;;;72.97;39.73;;;4.80;99.90;;;4.55;93.45;100562.16;5074744;28;20044;-74
2020/12/10 01:12:34;;;;;;;73.33;40.17;;;4.80;99.90;;;4.77;93.41;100587.81;5074812;28;20040;-74
2020/12/10 01:15:03;;;;;;;73.07;40.30;;;4.80;99.90;;;4.70;93.55;100580.75;5074910;28;20502;-74
2020/12/10 01:17:32;;;;;;;70.47;40.50;;;4.70;99.90;;;4.71;93.56;100581.59;5074768;28;20052;-74
2020/12/10 01:20:00;;;;;;;75.03;41.97;;;4.80;99.90;;;4.64;93.54;100598.09;5074293;28;20065;-74
2020/12/10 01:22:27;;;;;;;77.93;40.13;;;4.70;99.90;;;4.39;93.34;100566.28;5074942;28;20072;-74
2020/12/10 01:24:55;;;;;;;74.60;40.23;;;4.70;99.90;;;4.61;93.52;100595.44;5074212;28;20041;-74
2020/12/10 01:27:23;;;;;;;72.93;39.77;;;4.70;99.90;;;4.51;93.46;100579.56;5074441;28;20048;-74
2020/12/10 01:29:50;;;;;;;73.63;41.03;;;4.70;99.90;;;4.77;93.32;100592.16;5074331;28;20524;-74
2020/12/10 01:32:22;;;;;;;76.63;41.10;;;4.80;99.90;;;4.72;93.39;100589.50;5073324;28;20064;-75
2020/12/10 01:34:49;;;;;;;64.47;38.10;;;4.80;99.90;;;4.63;93.39;100562.31;5074892;28;20044;-75
2020/12/10 01:37:17;;;;;;;71.77;39.13;;;4.80;99.90;;;4.79;93.15;100591.34;5073064;28;20135;-75
2020/12/10 01:39:44;;;;;;;70.00;40.23;;;4.80;99.90;;;4.54;92.69;100578.75;5074139;28;20553;-74
2020/12/10 01:42:13;;;;;;;64.70;38.37;;;4.70;99.90;;;4.45;93.13;100574.25;5074039;28;20048;-74
2020/12/10 01:44:41;;;;;;;62.80;37.13;;;4.60;99.90;;;4.70;93.01;100575.50;5073984;28;20098;-75
2020/12/10 01:47:09;;;;;;;61.37;36.80;;;4.70;99.90;;;4.05;92.34;100459.34;5074535;28;20115;-74
2020/12/10 01:49:39;;;;;;;67.70;37.53;;;4.80;99.90;;;4.72;92.74;100580.75;5074021;28;20566;-75
2020/12/10 01:52:07;;;;;;;63.50;34.88;;;4.70;99.90;;;4.75;91.77;100583.41;5074028;28;20421;-74
2020/12/10 01:54:35;;;;;;;62.80;35.43;;;4.80;99.90;;;4.15;91.69;100489.16;5074167;28;20448;-74
2020/12/10 01:57:03;;;;;;;62.70;34.63;;;4.80;99.90;;;4.31;92.36;100543.50;5073727;28;20756;-74
2020/12/10 01:59:30;;;;;;;59.40;35.20;;;4.60;99.90;;;4.36;92.31;100558.41;5074090;28;20044;-74
2020/12/10 02:01:58;;;;;;;65.60;36.23;;;4.60;99.90;;;4.52;92.69;100589.22;5074089;28;20040;-74
2020/12/10 02:04:30;;;;;;;60.37;37.07;;;4.60;99.90;;;4.43;92.45;100591.66;5072595;28;20394;-74
2020/12/10 02:06:59;;;;;;;61.43;37.27;;;4.50;99.90;;;4.48;92.73;100570.81;5072555;28;20048;-74
2020/12/10 02:09:27;;;;;;;59.57;36.37;;;4.50;99.90;;;4.39;92.56;100566.28;5072508;28;20072;-74
2020/12/10 02:11:56;;;;;;;63.23;37.17;;;4.50;99.90;;;4.31;92.11;100559.19;5072173;28;20055;-75
2020/12/10 02:14:31;;;;;;;59.17;35.27;;;4.40;99.90;;;4.27;92.00;100547.81;5073498;28;20158;-75
2020/12/10 02:17:01;;;;;;;57.43;35.53;;;4.40;99.90;;;3.96;92.05;100513.25;5073771;28;20043;-74
2020/12/10 02:19:29;;;;;;;59.25;35.22;;;4.30;99.90;;;4.24;92.02;100552.13;5073452;28;20512;-74
2020/12/10 02:21:57;;;;;;;52.30;33.67;;;4.30;99.90;;;4.15;92.13;100545.00;5073207;28;20060;-74
2020/12/10 02:24:25;;;;;;;51.50;34.17;;;4.20;99.90;;;4.19;92.31;100548.53;5073472;28;20105;-74
2020/12/10 02:26:53;;;;;;;56.13;33.23;;;4.20;99.90;;;4.19;92.12;100528.47;5073220;28;20045;-74
2020/12/10 02:29:21;;;;;;;50.77;32.60;;;4.30;99.90;;;4.31;91.57;100528.66;5073163;28;20044;-75
2020/12/10 02:31:48;;;;;;;54.50;34.10;;;4.30;99.90;;;4.32;91.57;100533.03;5073403;28;20044;-74
2020/12/10 02:34:16;;;;;;;56.90;32.83;;;4.40;99.90;;;4.40;90.91;100527.91;5073176;28;20189;-74
2020/12/10 02:36:45;;;;;;;53.47;33.00;;;4.40;99.90;;;4.27;90.92;100516.41;5072988;28;20048;-75
2020/12/10 02:39:12;;;;;;;52.67;33.30;;;4.40;99.90;;;4.32;91.38;100519.94;5072872;28;20468;-74
2020/12/10 02:41:41;;;;;;;51.27;32.07;;;4.40;99.90;;;4.53;91.33;100527.22;5073302;28;20048;-75
2020/12/10 02:44:08;;;;;;;53.23;33.07;;;4.50;99.90;;;4.48;90.17;100514.09;5073165;28;20106;-74
2020/12/10 02:46:36;;;;;;;50.27;31.70;;;4.50;99.90;;;4.33;90.74;100511.25;5072875;28;20110;-74
2020/12/10 02:49:03;;;;;;;49.97;31.00;;;4.40;99.90;;;4.09;91.00;100470.72;5072799;28;20043;-74
2020/12/10 02:51:31;;;;;;;44.37;29.60;;;4.40;99.90;;;4.03;91.33;100465.41;5073013;28;20056;-75
2020/12/10 02:53:59;;;;;;;53.07;32.03;;;4.20;99.90;;;3.70;91.26;100410.84;5072973;28;20075;-74
2020/12/10 02:56:29;;;;;;;53.30;32.93;;;4.20;99.90;;;3.33;91.25;100323.13;5071569;28;20060;-75
2020/12/10 02:58:57;;;;;;;57.70;35.03;;;4.30;99.90;;;4.53;90.54;100490.56;5072681;28;20052;-75
2020/12/10 03:01:25;;;;;;;54.07;33.17;;;4.50;99.90;;;4.26;90.19;100449.19;5072556;28;20043;-74
2020/12/10 03:03:53;;;;;;;51.47;32.03;;;4.50;99.90;;;4.34;90.34;100458.03;5072572;28;20044;-74
2020/12/10 03:06:20;;;;;;;47.27;30.17;;;4.50;99.90;;;4.39;90.13;100484.28;5071398;28;20442;-74
2020/12/10 03:08:48;;;;;;;48.03;30.23;;;4.40;99.90;;;4.18;90.55;100452.56;5072477;28;20041;-75
2020/12/10 03:11:15;;;;;;;46.80;28.90;;;4.40;99.90;;;4.36;90.26;100481.59;5072729;28;20036;-74
2020/12/10 03:13:43;;;;;;;42.20;27.00;;;4.40;99.90;;;4.37;90.35;100471.19;5072728;28;20444;-75
2020/12/10 03:16:13;;;;;;;43.23;27.10;;;4.40;99.90;;;4.46;89.98;100479.16;5070721;28;20079;-74
2020/12/10 03:18:40;;;;;;;37.13;25.60;;;4.40;99.90;;;4.45;89.67;100485.22;5072303;28;20048;-74
2020/12/10 03:21:08;;;;;;;38.30;25.67;;;4.50;99.90;;;4.38;89.98;100491.25;5072400;28;20048;-74
2020/12/10 03:23:40;;;;;;;35.50;23.63;;;4.40;99.90;;;4.36;90.21;100485.09;5072373;28;20405;-75
2020/12/10 03:26:07;;;;;;;35.07;24.03;;;4.40;99.90;;;4.30;90.18;100477.16;5072537;28;20074;-74
2020/12/10 03:28:35;;;;;;;34.63;23.07;;;4.30;99.90;;;4.28;90.17;100480.59;5072450;28;20071;-74
2020/12/10 03:31:03;;;;;;;32.47;22.70;;;4.30;99.90;;;4.29;90.30;100472.81;5072176;28;20375;-74
2020/12/10 03:33:31;;;;;;;33.90;23.10;;;4.30;99.90;;;4.12;89.79;100452.47;5072160;28;20059;-74
2020/12/10 03:35:58;;;;;;;37.57;24.53;;;4.30;99.90;;;4.24;90.06;100469.22;5072155;28;20047;-74
2020/12/10 03:38:26;;;;;;;34.70;23.60;;;4.20;99.90;;;4.33;89.89;100458.91;5072069;28;20068;-74
2020/12/10 03:40:53;;;;;;;32.50;21.50;;;4.30;99.90;;;4.21;90.26;100455.22;5072166;28;20032;-74
2020/12/10 03:43:21;;;;;;;32.13;22.50;;;4.30;99.90;;;4.07;89.89;100462.88;5072293;28;20064;-74
2020/12/10 03:45:48;;;;;;;32.33;22.13;;;4.10;99.90;;;3.38;89.96;100354.56;5071980;28;20044;-74
2020/12/10 03:48:15;;;;;;;31.83;21.67;;;4.10;99.90;;;3.79;89.86;100411.00;5071986;28;20047;-74
2020/12/10 03:50:43;;;;;;;34.50;23.50;;;4.10;99.90;;;3.99;89.75;100450.53;5072207;28;20101;-74
2020/12/10 03:53:11;;;;;;;36.07;24.00;;;4.10;99.90;;;4.15;89.54;100494.38;5072260;28;20119;-74
2020/12/10 03:55:38;;;;;;;34.13;24.17;;;4.10;99.90;;;4.05;90.11;100498.59;5072147;28;20048;-74
2020/12/10 03:58:06;;;;;;;38.63;24.10;;;4.10;99.90;;;4.02;90.01;100466.28;5072173;28;20086;-74
2020/12/10 04:00:33;;;;;;;34.80;23.50;;;4.10;99.90;;;2.31;89.92;100168.28;5071853;28;20147;-75
2020/12/10 04:03:01;;;;;;;36.50;24.03;;;4.10;99.90;;;4.09;89.94;100468.13;5072170;28;20565;-74
2020/12/10 04:05:29;;;;;;;35.53;22.93;;;4.10;99.90;;;3.89;90.43;100430.34;5071795;28;20570;-74
2020/12/10 04:07:57;;;;;;;35.77;24.40;;;4.10;99.90;;;3.88;90.42;100432.06;5072118;28;20052;-75
2020/12/10 04:10:25;;;;;;;37.57;25.43;;;4.10;99.90;;;4.17;90.33;100463.88;5071623;28;20041;-74
2020/12/10 04:12:53;;;;;;;37.07;24.20;;;4.10;99.90;;;3.90;91.04;100460.84;5070656;28;20402;-74
2020/12/10 04:15:20;;;;;;;39.27;25.40;;;3.90;99.90;;;3.71;91.40;100430.03;5071992;28;20124;-74
2020/12/10 04:17:48;;;;;;;38.60;24.57;;;3.90;99.90;;;3.77;91.95;100453.66;5071646;28;20051;-74
2020/12/10 04:20:16;;;;;;;38.10;25.43;;;3.80;99.90;;;3.82;92.35;100488.63;5071611;28;20118;-74
2020/12/10 04:22:43;;;;;;;38.30;24.00;;;3.80;99.90;;;3.79;91.81;100460.69;5071991;28;20093;-74
2020/12/10 04:25:15;;;;;;;37.50;24.00;;;3.80;99.90;;;3.77;91.98;100457.19;5071931;28;20036;-74
2020/12/10 04:27:44;;;;;;;36.83;23.70;;;3.80;99.90;;;3.79;91.90;100445.00;5074532;28;20094;-74
2020/12/10 04:30:13;;;;;;;33.13;22.93;;;3.80;99.90;;;3.85;91.60;100460.78;5075765;28;20040;-74
2020/12/10 04:32:40;;;;;;;34.87;23.10;;;3.80;99.90;;;3.62;92.12;100449.94;5075981;28;20044;-74
2020/12/10 04:35:09;;;;;;;32.13;21.50;;;3.70;99.90;;;3.78;92.14;100456.31;5074641;28;20398;-74
2020/12/10 04:37:37;;;;;;;35.40;23.23;;;3.70;99.90;;;3.66;92.10;100466.56;5075613;28;20044;-74
2020/12/10 04:40:05;;;;;;;35.90;22.50;;;3.70;99.90;;;3.53;92.13;100431.50;5074234;28;20578;-74
2020/12/10 04:42:33;;;;;;;34.83;22.43;;;3.70;99.90;;;3.63;91.92;100456.94;5074201;28;20060;-74
2020/12/10 04:45:00;;;;;;;35.27;22.00;;;3.70;99.90;;;3.65;91.91;100459.59;5075409;28;20387;-74
2020/12/10 04:47:30;;;;;;;32.17;20.23;;;3.70;99.90;;;3.24;91.72;100390.03;5075198;28;20044;-74
2020/12/10 04:50:02;;;;;;;31.87;22.17;;;3.70;99.90;;;3.60;91.95;100443.81;5075178;28;20584;-74
2020/12/10 04:52:31;;;;;;;32.83;21.80;;;3.70;99.90;;;3.52;92.11;100436.72;5075456;28;20094;-74
2020/12/10 04:54:59;;;;;;;33.40;21.13;;;3.70;99.90;;;3.54;91.34;100454.16;5074993;28;20097;-74
2020/12/10 04:57:29;;;;;;;30.10;20.37;;;3.70;99.90;;;3.78;91.26;100466.75;5075205;28;20059;-75
2020/12/10 04:59:59;;;;;;;33.17;22.13;;;3.80;99.90;;;3.80;91.25;100469.41;5075269;28;20367;-74
2020/12/10 05:02:26;;;;;;;30.67;20.27;;;3.80;99.90;;;3.63;91.08;100445.59;5073863;28;20502;-74
2020/12/10 05:04:55;;;;;;;33.17;21.80;;;3.80;99.90;;;3.70;91.31;100463.13;5075051;28;20052;-74
2020/12/10 05:07:38;;;;;;;29.47;20.80;;;3.70;99.90;;;3.58;91.04;100436.81;5074804;28;20062;-74
2020/12/10 05:10:06;;;;;;;31.90;22.27;;;3.80;99.90;;;3.70;91.11;100467.50;5074780;28;20040;-82
2020/12/10 05:12:33;;;;;;;32.30;21.53;;;3.80;99.90;;;3.64;90.60;100460.41;5073717;28;20064;-73
2020/12/10 05:15:01;;;;;;;31.07;20.90;;;3.80;99.90;;;3.60;91.56;100479.56;5074639;28;20052;-73
2020/12/10 05:17:32;;;;;;;33.13;21.13;;;3.70;99.90;;;3.70;91.71;100478.81;5074549;28;20044;-72
2020/12/10 05:22:46;;;;;;;29.53;19.93;;;3.70;99.90;;;3.41;90.87;100453.91;5074459;28;20101;-77
2020/12/10 05:25:15;;;;;;;30.17;20.43;;;3.70;99.90;;;3.74;90.78;100440.53;5074729;28;20049;-79
2020/12/10 05:27:46;;;;;;;30.70;20.30;;;3.80;99.90;;;3.40;90.62;100419.09;5074431;28;20474;-78
2020/12/10 05:30:15;;;;;;;34.90;20.87;;;3.80;99.90;;;3.82;91.06;100468.56;5074729;28;20102;-78
2020/12/10 05:32:43;;;;;;;32.60;20.97;;;3.80;99.90;;;3.68;90.73;100476.19;5074604;28;20042;-78
2020/12/10 05:35:23;;;;;;;30.43;20.70;;;3.70;99.90;;;1.38;91.13;100125.69;5074302;28;20045;-79
2020/12/10 05:37:59;;;;;;;30.70;20.33;;;3.70;99.90;;;3.69;91.17;100498.00;5074123;28;20071;-79
2020/12/10 05:40:26;;;;;;;30.80;19.97;;;3.70;99.90;;;3.65;90.71;100470.03;5074274;28;20102;-79
2020/12/10 05:42:54;;;;;;;31.97;21.33;;;3.80;99.90;;;3.66;90.72;100480.50;5074251;28;20090;-80
2020/12/10 05:45:24;;;;;;;31.97;20.10;;;3.80;99.90;;;3.91;91.06;100497.47;5074389;28;20045;-81
2020/12/10 05:47:58;;;;;;;32.33;21.30;;;3.90;99.90;;;3.78;90.92;100492.03;5074376;28;20131;-80
2020/12/10 05:50:28;;;;;;;30.63;20.40;;;3.80;99.90;;;3.86;90.42;100490.41;5074556;28;20117;-77
2020/12/10 05:53:14;;;;;;;28.60;19.33;;;3.90;99.90;;;3.71;90.47;100488.44;5074025;28;20053;-78
2020/12/10 05:55:44;;;;;;;30.30;20.13;;;3.80;99.90;;;3.68;91.19;100501.47;5074047;28;20062;-77
2020/12/10 05:58:12;;;;;;;30.55;19.67;;;3.70;99.90;;;3.73;91.28;100506.78;5073876;28;20033;-77
2020/12/10 06:00:42;;;;;;;32.47;21.37;;;3.70;99.90;;;3.61;91.42;100489.16;5073892;28;20452;-77
2020/12/10 06:03:11;;;;;;;28.83;19.17;;;3.70;99.90;;;3.59;91.88;100494.34;5106591;28;20048;-77
2020/12/10 06:05:39;;;;;;;30.00;20.60;;;3.70;99.90;;;3.62;91.79;100501.34;5074334;28;20044;-77
2020/12/10 06:08:08;;;;;;;31.83;20.73;;;3.60;99.90;;;3.69;91.48;100498.00;5073718;28;20045;-77
2020/12/10 06:10:37;;;;;;;30.33;20.80;;;3.70;99.90;;;3.72;91.35;100529.41;5073670;28;20440;-77
2020/12/10 06:13:07;;;;;;;29.27;19.60;;;3.70;99.90;;;3.75;91.47;100505.97;5073581;28;20076;-78
2020/12/10 06:15:35;;;;;;;29.03;20.17;;;3.70;99.90;;;3.69;91.28;100500.63;5073762;28;20036;-77
2020/12/10 06:18:09;;;;;;;29.73;20.33;;;3.70;99.90;;;3.72;90.93;100508.50;5073439;28;20071;-77
2020/12/10 06:20:42;;;;;;;33.40;21.17;;;3.80;99.90;;;3.74;91.24;100512.03;5073404;28;20054;-77
2020/12/10 06:23:37;;;;;;;30.80;21.20;;;3.70;99.90;;;3.75;90.50;100520.75;5073736;28;20040;-78
2020/12/10 06:26:37;;;;;;;31.47;20.33;;;3.80;99.90;;;3.67;90.91;100490.13;5073629;28;20045;-77
2020/12/10 06:29:25;;;;;;;31.08;21.55;;;3.80;99.90;;;2.98;90.92;100473.16;5011431;28;20416;-77
2020/12/10 06:32:09;;;;;;;33.67;22.13;;;3.80;99.90;;;3.66;91.40;100503.16;5069832;28;20064;-77
2020/12/10 06:34:55;;;;;;;28.90;20.67;;;3.80;99.90;;;3.21;90.28;100398.72;5073505;28;20097;-77
2020/12/10 06:37:26;;;;;;;34.57;21.80;;;3.80;99.90;;;3.75;90.63;100516.41;5073552;28;20040;-76
2020/12/10 06:40:01;;;;;;;32.20;20.63;;;3.80;99.90;;;3.79;90.78;100519.97;5073327;28;20068;-77
2020/12/10 06:42:46;;;;;;;32.13;21.40;;;3.80;99.90;;;3.88;91.00;100515.75;5073445;28;20109;-77
2020/12/10 06:45:32;;;;;;;31.03;21.77;;;3.90;99.90;;;3.83;90.69;100498.22;5072924;28;20048;-76
2020/12/10 06:48:02;;;;;;;34.93;22.57;;;3.90;99.90;;;3.92;90.60;100514.06;5072958;28;20052;-77
2020/12/10 06:50:33;;;;;;;30.42;21.52;;;3.90;99.90;;;3.90;90.52;100529.75;5072332;28;20406;-77
2020/12/10 06:53:27;;;;;;;31.23;20.23;;;3.90;99.90;;;3.79;90.53;100484.22;5072829;28;20444;-76
2020/12/10 06:56:13;;;;;;;31.77;21.33;;;4.00;99.90;;;3.99;90.07;100519.41;5038475;28;20136;-77
2020/12/10 06:58:58;;;;;;;30.67;21.70;;;4.00;99.90;;;4.04;89.91;100543.94;5072923;28;20135;-76
2020/12/10 07:01:31;;;;;;;32.73;22.27;;;4.10;99.90;;;2.23;89.50;100252.44;5072960;28;20036;-76
2020/12/10 07:04:32;;;;;;;31.63;21.47;;;4.00;99.90;;;3.98;90.24;100527.25;5072664;28;20051;-76
2020/12/10 07:07:27;;;;;;;32.37;21.67;;;4.00;99.90;;;3.97;90.16;100510.66;5072862;28;20151;-76
2020/12/10 07:09:58;;;;;;;33.97;23.00;;;4.00;99.90;;;3.93;90.30;100503.63;5072649;28;20048;-76
2020/12/10 07:12:28;;;;;;;33.63;23.50;;;4.00;99.90;;;4.00;90.04;100509.84;5072346;28;20502;-76
2020/12/10 07:15:11;;;;;;;33.42;23.75;;;4.00;99.90;;;3.96;89.96;100511.53;5072812;28;20131;-76
2020/12/10 07:20:23;;;;;;;36.47;23.47;;;3.90;99.90;;;4.00;89.96;100512.47;5068111;28;20048;-77
2020/12/10 07:22:56;;;;;;;36.13;23.10;;;4.00;99.90;;;4.11;89.85;100510.88;5072577;28;20131;-77
2020/12/10 07:25:23;;;;;;;35.93;23.03;;;4.10;99.90;;;4.08;89.40;100513.47;5073176;28;20036;-76
2020/12/10 07:27:51;;;;;;;34.10;22.97;;;4.10;99.90;;;3.23;89.60;100419.66;5072723;28;20409;-76
2020/12/10 07:30:23;;;;;;;33.10;21.83;;;4.00;99.90;;;3.95;89.60;100520.22;5071285;28;20049;-78
2020/12/10 07:32:57;;;;;;;35.67;23.00;;;4.00;99.90;;;4.00;89.74;100521.19;5072295;28;20573;-77
2020/12/10 07:35:37;;;;;;;33.83;21.57;;;4.00;99.90;;;3.09;89.52;100402.84;5072465;28;20040;-77
2020/12/10 07:38:10;;;;;;;32.90;22.43;;;3.90;99.90;;;3.88;90.67;100518.38;5072079;28;20058;-76
2020/12/10 07:40:40;;;;;;;32.67;22.10;;;3.90;99.90;;;3.76;90.08;100488.50;5072455;28;20067;-77
2020/12/10 07:43:10;;;;;;;33.80;21.70;;;3.90;99.90;;;3.84;90.41;100519.19;5072064;28;20090;-77
2020/12/10 07:48:24;;;;;;;32.37;22.27;;;3.90;99.90;;;3.07;90.54;100388.88;5069659;28;20057;-77
2020/12/10 07:50:51;;;;;;;33.20;23.10;;;3.90;99.90;;;3.90;90.43;100519.28;5072143;28;20486;-77
2020/12/10 07:53:20;;;;;;;33.70;21.87;;;3.90;99.90;;;3.81;90.46;100528.72;5071824;28;20406;-77
2020/12/10 07:55:54;;;;;;;33.13;22.20;;;3.80;99.90;;;3.83;90.23;100521.78;5070889;28;20438;-77
2020/12/10 07:58:38;;;;;;;32.73;22.83;;;3.80;99.90;;;3.93;90.10;100523.69;5071888;28;20055;-77
2020/12/10 08:01:06;;;;;;;29.67;21.27;;;3.90;99.90;;;3.71;90.08;100495.41;5104590;28;20138;-77
2020/12/10 08:03:49;;;;;;;29.27;21.20;;;3.90;99.90;;;3.91;90.57;100535.88;5076132;28;20040;-76
2020/12/10 08:06:17;;;;;;;34.57;22.00;;;3.90;99.90;;;3.98;90.06;100533.38;5076302;28;20394;-77
2020/12/10 08:08:55;;;;;;;30.47;21.03;;;3.90;99.90;;;4.03;89.87;100530.81;5076210;28;20135;-78
2020/12/10 08:11:26;;;;;;;32.03;21.07;;;4.00;99.90;;;3.85;89.74;100496.53;5076192;28;20189;-76
2020/12/10 08:14:06;;;;;;;30.87;22.13;;;4.00;99.90;;;4.06;89.82;100531.78;5074839;28;20143;-77
2020/12/10 08:16:40;;;;;;;32.93;21.37;;;4.00;99.90;;;3.79;89.73;100510.38;5059873;28;20397;-76
2020/12/10 08:19:16;;;;;;;31.03;22.00;;;4.00;99.90;;;3.99;89.32;100524.66;5075693;28;20478;-76
2020/12/10 08:21:44;;;;;;;30.60;21.77;;;4.00;99.90;;;3.86;89.60;100496.53;5075706;28;20447;-77
2020/12/10 08:24:34;;;;;;;31.30;21.23;;;4.00;99.90;;;3.99;89.41;100537.72;5076166;28;20059;-77
2020/12/10 08:27:02;;;;;;;32.83;23.53;;;4.00;99.90;;;4.11;89.71;100535.31;5075539;28;20040;-77
2020/12/10 08:29:30;;;;;;;32.73;22.30;;;4.00;99.90;;;3.93;89.46;100514.09;5074549;28;20139;-77
2020/12/10 08:32:14;;;;;;;31.33;21.70;;;4.00;99.90;;;4.01;89.16;100543.88;5075376;28;20040;-77
2020/12/10 08:34:42;;;;;;;37.80;22.07;;;4.00;99.90;;;3.95;89.37;100512.38;5075465;28;20123;-77
2020/12/10 08:37:13;;;;;;;31.57;21.67;;;4.00;99.90;;;4.13;89.06;100532.72;5075641;28;20090;-77
2020/12/10 08:39:42;;;;;;;35.20;23.27;;;4.10;99.90;;;4.19;88.77;100538.94;5075337;28;20047;-77
2020/12/10 08:44:52;;;;;;;37.43;23.30;;;4.20;99.90;;;4.22;88.43;100532.88;5075100;28;20063;-77
2020/12/10 08:47:38;;;;;;;36.33;22.87;;;4.20;99.90;;;4.13;88.26;100499.59;5075236;28;20048;-77
2020/12/10 08:50:23;;;;;;;32.60;22.93;;;4.30;99.90;;;4.20;87.73;100511.03;5075119;28;20049;-78
2020/12/10 08:53:03;;;;;;;32.53;22.13;;;4.30;99.90;;;4.27;87.53;100539.94;5075355;28;20048;-77
2020/12/10 08:55:41;;;;;;;32.80;22.25;;;4.30;99.90;;;4.23;88.17;100535.53;5073728;28;20044;-78
2020/12/10 08:58:14;;;;;;;34.43;22.90;;;4.20;99.90;;;3.02;88.47;100380.94;5075251;28;20402;-77
2020/12/10 09:01:06;;;;;;;33.00;21.90;;;4.00;99.90;;;4.05;89.16;100535.22;5072948;28;20045;-77
2020/12/10 09:03:33;;;;;;;34.43;22.13;;;4.00;99.90;;;4.13;88.99;100536.22;5074963;28;20509;-76
2020/12/10 09:06:16;;;;;;;31.33;21.70;;;4.10;99.90;;;4.12;88.53;100531.84;5075521;28;20414;-77
2020/12/10 09:09:00;;;;;;;36.87;21.63;;;4.20;99.90;;;4.10;88.61;100544.06;5074764;28;20059;-77
2020/12/10 09:11:49;;;;;;;34.77;22.37;;;4.10;99.90;;;3.80;89.32;100490.31;5072662;28;20057;-78
2020/12/10 09:14:17;;;;;;;36.43;23.17;;;4.10;99.90;;;4.03;89.49;100530.81;5074593;28;20051;-78
2020/12/10 09:16:46;;;;;;;34.20;21.97;;;4.00;99.90;;;3.92;89.38;100504.50;5073439;28;20075;-77
2020/12/10 09:19:14;;;;;;;36.40;24.23;;;4.00;99.90;;;4.07;89.58;100549.22;5074543;28;20032;-77
2020/12/10 09:24:29;;;;;;;34.83;23.53;;;4.10;99.90;;;3.96;89.23;100544.66;5074116;28;20059;-78
2020/12/10 09:27:17;;;;;;;34.67;23.13;;;4.00;99.90;;;3.68;88.90;100470.97;5073042;28;20056;-78
2020/12/10 09:29:48;;;;;;;33.23;22.83;;;4.00;99.90;;;3.70;89.78;100522.44;5073386;28;20048;-77
2020/12/10 09:32:17;;;;;;;;;;;3.80;99.90;;;3.56;89.83;100519.56;5075158;28;20036;-77
2020/12/10 09:34:52;;;;;;;37.57;24.10;;;3.70;99.90;;;2.94;90.83;100416.53;5074312;28;19927;-77
2020/12/10 09:40:07;;;;;;;38.47;25.00;;;3.50;99.90;;;3.59;91.44;100533.56;5074130;28;20048;-79
2020/12/10 09:42:39;;;;;;;35.73;24.30;;;3.60;99.90;;;3.42;90.80;100498.41;5074547;28;20052;-77
2020/12/10 09:45:07;;;;;;;36.50;24.37;;;3.60;99.90;;;3.63;90.61;100522.31;5074590;28;20049;-78
2020/12/10 09:47:35;;;;;;;37.40;24.30;;;3.70;99.90;;;3.88;90.27;100549.75;5074371;28;20086;-77
2020/12/10 09:53:04;;;;;;;37.93;23.10;;;3.80;99.90;;;3.88;90.14;100539.31;5073610;28;20402;-77
2020/12/10 09:58:58;;;;;;;41.33;23.57;;;3.80;99.90;;;3.81;89.86;100542.69;5074075;28;20474;-78
2020/12/10 10:01:26;;;;;;;34.75;23.45;;;3.80;99.90;;;3.98;89.90;100533.38;5073672;28;20109;-78
2020/12/10 10:03:54;;;;;;;35.57;22.57;;;3.90;99.90;;;3.93;89.87;100539.38;5072311;28;20044;-78
2020/12/10 10:06:22;;;;;;;37.37;23.10;;;3.90;99.90;;;4.12;89.11;100541.44;5073686;28;20048;-77
2020/12/10 10:08:50;;;;;;;35.43;22.93;;;4.00;99.90;;;3.92;88.41;100512.34;5074191;28;20052;-77
2020/12/10 10:11:18;;;;;;;33.97;22.40;;;4.10;99.90;;;3.85;88.49;100528.81;5073552;28;20383;-77
2020/12/10 10:13:47;;;;;;;36.58;23.15;;;4.00;99.90;;;3.54;88.20;100492.53;5073842;28;20080;-77
2020/12/10 10:16:16;;;;;;;38.13;24.53;;;3.90;99.90;;;4.06;88.90;100536.09;5074120;28;20500;-76
2020/12/10 10:18:46;;;;;;;34.97;23.50;;;4.00;99.90;;;3.85;88.35;100543.59;5073377;28;20052;-78
2020/12/10 10:21:18;;;;;;;33.00;23.20;;;4.00;99.90;;;3.36;88.52;100451.25;5073339;28;20405;-77
2020/12/10 10:23:50;;;;;;;38.07;22.70;;;3.90;99.90;;;3.74;88.92;100538.19;5073160;28;20485;-77
2020/12/10 10:26:17;;;;;;;35.50;23.60;;;3.70;99.90;;;3.76;89.27;100541.69;5073404;28;20049;-76
2020/12/10 10:29:08;;;;;;;35.20;22.83;;;3.70;99.90;;;3.22;88.79;100446.63;5073392;28;20402;-79
2020/12/10 10:31:36;;;;;;;32.88;22.27;;;3.80;99.90;;;3.30;89.26;100443.31;5073199;28;20040;-77
2020/12/10 10:34:04;;;;;;;37.67;23.50;;;3.80;99.90;;;3.86;89.03;100522.69;5073364;28;20094;-77
2020/12/10 10:36:31;;;;;;;35.67;22.80;;;3.90;99.90;;;3.98;88.52;100535.09;5073084;28;20551;-77
2020/12/10 10:39:20;;;;;;;39.57;22.33;;;4.00;99.90;;;3.64;88.57;100515.31;5073018;28;20045;-77
2020/12/10 10:42:05;;;;;;;31.73;22.13;;;3.80;99.90;;;3.77;89.15;100529.50;5073129;28;20051;-78
2020/12/10 10:44:34;;;;;;;36.73;22.63;;;3.80;99.90;;;3.93;89.16;100514.09;5072646;28;20048;-78
2020/12/10 10:47:03;;;;;;;34.07;22.50;;;3.90;99.90;;;3.97;88.84;100531.59;5073259;28;20044;-78
2020/12/10 10:49:54;;;;;;;31.40;21.63;;;4.00;99.90;;;3.96;89.09;100519.38;5073470;28;20052;-77
2020/12/10 10:55:08;;;;;;;34.40;22.37;;;4.10;99.90;;;4.22;88.60;100525.03;5071343;28;20047;-78